CST,Max TemperatureF,Mean TemperatureF,Min TemperatureF,Max Dew PointF,MeanDew PointF,Min DewpointF,Max Humidity, Mean Humidity, Min Humidity, Max Sea Level PressureIn, Mean Sea Level PressureIn, Min Sea Level PressureIn, Max VisibilityMiles, Mean VisibilityMiles, Min VisibilityMiles, Max Wind SpeedMPH, Mean Wind SpeedMPH, Max Gust SpeedMPH,PrecipitationIn, CloudCover, Events, WindDirDegrees
2012-11-1,44,38,32,30,25,21,75,57,45,30.03,29.94,29.89,10,10,10,17,6,32,0.00,6,,305
2012-11-2,42,33,24,27,24,19,93,65,39,30.17,30.11,30.03,10,10,10,8,4,,0.00,2,,340
2012-11-3,41,37,33,30,26,23,81,67,56,30.25,30.21,30.17,10,10,10,10,4,,0.00,8,,70
2012-11-4,46,38,30,32,30,27,87,73,53,30.24,30.20,30.16,10,10,10,8,2,,0.00,5,,80
2012-11-5,42,38,33,32,29,27,81,69,57,30.22,30.15,29.98,10,10,10,9,6,,0.00,8,,102
2012-11-6,42,38,33,37,34,30,100,86,65,29.97,29.84,29.76,10,7,1,17,8,25,0.27,8,Rain-Snow,224
2012-11-7,42,40,37,34,33,32,87,78,66,30.11,30.06,29.94,10,10,10,9,6,,0.00,8,,241
2012-11-8,55,44,32,37,33,30,93,74,44,30.10,30.01,29.93,10,10,7,15,6,20,0.00,3,,147
2012-11-9,53,46,39,37,36,36,87,72,51,30.06,30.02,29.98,10,10,7,17,5,21,0.00,5,,69
2012-11-10,64,53,42,55,46,37,93,83,59,29.98,29.72,29.55,10,6,2,22,13,29,0.01,6,Rain-Thunderstorm,109
2012-11-11,64,46,26,52,35,18,100,80,59,29.91,29.72,29.56,10,9,2,22,13,29,0.17,8,Rain,248
2012-11-12,28,24,21,19,16,12,80,67,55,30.28,30.05,29.92,10,9,2,20,14,25,0.00,8,Snow,245
2012-11-13,37,28,19,27,20,14,93,71,48,30.40,30.34,30.28,10,10,10,10,6,,0.00,2,,164
2012-11-14,48,40,32,32,30,27,87,71,54,30.32,30.25,30.18,10,10,10,12,5,,0.00,5,,127
2012-11-15,51,42,30,32,27,12,75,54,44,30.44,30.25,30.15,10,10,10,15,7,18,0.00,3,,239
2012-11-16,44,32,21,28,21,12,93,64,43,30.50,30.44,30.37,10,10,5,7,4,,0.00,0,,101
2012-11-17,55,42,28,36,32,28,100,76,44,30.38,30.32,30.27,10,7,2,14,7,18,0.00,1,,121
2012-11-18,57,47,37,32,32,30,75,59,36,30.29,30.19,30.12,10,10,7,15,8,18,0.00,3,,125
2012-11-19,55,46,37,41,36,32,93,68,51,30.17,30.08,30.05,10,10,5,12,6,,0.00,6,Rain,118
2012-11-20,53,42,30,39,34,30,100,86,47,30.15,30.11,30.06,10,5,0,6,1,,0.00,2,Fog-Snow,115
2012-11-21,60,44,28,45,36,28,100,74,42,30.08,29.94,29.78,10,6,0,14,6,17,0.00,2,Fog,137
2012-11-22,60,44,28,41,35,18,93,61,42,29.90,29.72,29.61,10,10,4,26,15,36,0.00,3,Snow,223
2012-11-23,28,24,21,19,16,10,80,68,59,30.32,30.15,29.91,10,9,3,28,18,36,0.00,8,Snow,294
2012-11-24,30,22,14,18,12,9,86,65,51,30.31,30.11,29.82,10,10,7,10,7,,0.00,5,Snow,183
2012-11-25,32,28,24,23,20,18,80,68,60,30.09,29.93,29.80,10,10,10,15,7,22,0.00,7,Snow,266
2012-11-26,30,21,12,23,7,3,75,61,46,30.38,30.31,30.11,10,10,10,16,9,22,0.00,2,,296
2012-11-27,33,22,10,21,14,5,79,62,44,30.35,30.19,30.09,10,10,7,15,4,17,0.00,4,,199
2012-11-28,32,28,23,23,21,19,86,73,60,30.35,30.24,30.12,10,10,7,13,6,16,0.00,5,,228
2012-11-29,41,32,23,27,24,19,93,72,49,30.13,30.09,30.06,10,9,5,14,4,,0.00,1,,51
2012-11-30,33,32,32,32,29,27,93,85,75,30.20,30.15,30.11,10,7,3,15,9,18,0.00,8,,83